Dew Point Data


Current

Temp 31.0 F. Dew Point 25.0 F.


Dew Point Comfort Scale

dewpoints

Date, Time Temperature Dew Point
Sat Dec 22 00:08:05 2018 30.0 F. 27.0 F.
Sat Dec 22 01:08:06 2018 28.0 F. 26.1 F.
Sat Dec 22 02:08:05 2018 28.0 F. 26.1 F.
Sat Dec 22 03:08:05 2018 27.0 F. 26.1 F.
Sat Dec 22 04:08:05 2018 27.0 F. 26.1 F.
Sat Dec 22 05:08:05 2018 27.0 F. 25.0 F.
Sat Dec 22 06:08:05 2018 27.0 F. 25.0 F.
Sat Dec 22 07:08:05 2018 26.0 F. 24.1 F.
Sat Dec 22 08:08:05 2018 28.0 F. 26.1 F.
Sat Dec 22 09:08:06 2018 31.0 F. 28.9 F.
Sat Dec 22 10:08:06 2018 35.0 F. 30.9 F.
Sat Dec 22 11:08:05 2018 41.0 F. 34.0 F.
Sat Dec 22 12:08:05 2018 45.0 F. 35.1 F.
Sat Dec 22 13:08:05 2018 47.0 F. 36.0 F.
Sat Dec 22 14:08:05 2018 49.0 F. 36.0 F.
Sat Dec 22 15:08:05 2018 50.0 F. 35.1 F.
Sat Dec 22 16:08:05 2018 48.0 F. 34.0 F.
Sat Dec 22 17:08:06 2018 44.0 F. 33.1 F.
Sat Dec 22 18:08:05 2018 40.0 F. 32.0 F.
Sat Dec 22 19:08:05 2018 41.0 F. 32.0 F.
Sat Dec 22 20:08:05 2018 38.0 F. 32.0 F.
Sat Dec 22 21:08:05 2018 37.0 F. 30.9 F.
Sat Dec 22 22:08:05 2018 35.0 F. 30.9 F.
Sat Dec 22 23:08:05 2018 33.0 F. 30.0 F.
Sun Dec 23 00:08:06 2018 34.0 F. 30.9 F.
Sun Dec 23 01:08:05 2018 32.0 F. 30.0 F.
Sun Dec 23 02:08:06 2018 31.0 F. 30.9 F.
Sun Dec 23 03:08:05 2018 32.0 F. 30.9 F.
Sun Dec 23 04:08:05 2018 33.0 F. 30.0 F.
Sun Dec 23 05:08:05 2018 32.0 F. 30.9 F.
Sun Dec 23 06:08:06 2018 31.0 F. 30.0 F.
Sun Dec 23 07:08:05 2018 31.0 F. 28.9 F.
Sun Dec 23 08:08:05 2018 32.0 F. 30.0 F.
Sun Dec 23 09:08:05 2018 33.0 F. 28.9 F.
Sun Dec 23 10:08:05 2018 33.0 F. 30.0 F.
Sun Dec 23 11:08:05 2018 34.0 F. 30.0 F.
Sun Dec 23 12:08:05 2018 36.0 F. 30.9 F.
Sun Dec 23 13:08:05 2018 37.0 F. 30.9 F.
Sun Dec 23 14:08:05 2018 39.0 F. 32.0 F.
Sun Dec 23 15:08:05 2018 40.0 F. 32.0 F.
Sun Dec 23 16:08:06 2018 41.0 F. 32.0 F.
Sun Dec 23 17:08:06 2018 39.0 F. 28.9 F.
Sun Dec 23 18:08:05 2018 35.0 F. 27.0 F.
Sun Dec 23 19:08:05 2018 30.0 F. 26.1 F.
Sun Dec 23 20:08:05 2018 29.0 F. 26.1 F.
Sun Dec 23 21:08:05 2018 31.0 F. 26.1 F.
Sun Dec 23 22:08:06 2018 29.0 F. 25.0 F.
Sun Dec 23 23:08:05 2018 26.0 F. 24.1 F.
Mon Dec 24 00:08:05 2018 28.0 F. 24.1 F.
Mon Dec 24 01:08:05 2018 30.0 F. 23.0 F.
Mon Dec 24 02:08:05 2018 28.0 F. 21.9 F.
Mon Dec 24 03:08:05 2018 28.0 F. 21.9 F.
Mon Dec 24 04:08:05 2018 28.0 F. 21.9 F.
Mon Dec 24 05:08:05 2018 29.0 F. 21.0 F.
Mon Dec 24 06:08:05 2018 29.0 F. 21.0 F.
Mon Dec 24 07:08:05 2018 30.0 F. 21.9 F.
Mon Dec 24 08:08:05 2018 29.0 F. 21.9 F.
Mon Dec 24 09:08:05 2018 35.0 F. 28.0 F.
Mon Dec 24 10:08:06 2018 42.0 F. 28.0 F.
Mon Dec 24 11:08:05 2018 45.0 F. 28.9 F.
Mon Dec 24 12:08:05 2018 47.0 F. 30.0 F.
Mon Dec 24 13:08:05 2018 49.0 F. 30.9 F.
Mon Dec 24 14:08:05 2018 49.0 F. 28.9 F.
Mon Dec 24 15:08:05 2018 48.0 F. 28.0 F.
Mon Dec 24 16:08:05 2018 46.0 F. 30.0 F.
Mon Dec 24 17:08:05 2018 43.0 F. 30.9 F.
Mon Dec 24 18:08:05 2018 40.0 F. 28.9 F.
Mon Dec 24 19:08:05 2018 40.0 F. 30.9 F.
Mon Dec 24 20:08:05 2018 40.0 F. 30.0 F.
Mon Dec 24 21:08:05 2018 40.0 F. 30.9 F.
Mon Dec 24 22:08:06 2018 38.0 F. 30.9 F.
Mon Dec 24 23:08:05 2018 38.0 F. 32.0 F.
Tue Dec 25 00:08:05 2018 37.0 F. 30.9 F.
Tue Dec 25 01:08:05 2018 37.0 F. 30.9 F.
Tue Dec 25 02:08:05 2018 39.0 F. 28.9 F.
Tue Dec 25 03:08:05 2018 39.0 F. 28.9 F.
Tue Dec 25 04:08:05 2018 38.0 F. 30.0 F.
Tue Dec 25 05:08:05 2018 39.0 F. 30.0 F.
Tue Dec 25 06:08:05 2018 37.0 F. 30.9 F.
Tue Dec 25 07:08:05 2018 37.0 F. 30.9 F.
Tue Dec 25 08:08:06 2018 38.0 F. 30.0 F.
Tue Dec 25 09:08:05 2018 39.0 F. 30.0 F.
Tue Dec 25 10:08:05 2018 41.0 F. 30.9 F.
Tue Dec 25 11:08:06 2018 43.0 F. 32.0 F.
Tue Dec 25 12:08:06 2018 46.0 F. 34.0 F.
Tue Dec 25 13:08:05 2018 49.0 F. 35.1 F.
Tue Dec 25 14:08:05 2018 50.0 F. 36.0 F.
Tue Dec 25 15:08:05 2018 51.0 F. 35.1 F.
Tue Dec 25 16:08:06 2018 49.0 F. 36.0 F.
Tue Dec 25 17:08:05 2018 46.0 F. 34.0 F.
Tue Dec 25 18:08:05 2018 42.0 F. 33.1 F.
Tue Dec 25 19:08:07 2018 41.0 F. 32.0 F.
Tue Dec 25 20:08:05 2018 39.0 F. 32.0 F.
Tue Dec 25 21:08:07 2018 37.0 F. 32.0 F.
Tue Dec 25 22:08:06 2018 37.0 F. 32.0 F.
Tue Dec 25 23:08:05 2018 32.0 F. 30.0 F.
Wed Dec 26 00:08:05 2018 33.0 F. 30.9 F.
Wed Dec 26 01:08:05 2018 32.0 F. 30.0 F.
Wed Dec 26 02:08:05 2018 29.0 F. 28.0 F.
Wed Dec 26 03:08:05 2018 30.0 F. 28.9 F.
Wed Dec 26 04:08:05 2018 29.0 F. 28.0 F.
Wed Dec 26 05:08:04 2018 29.0 F. 27.0 F.
Wed Dec 26 06:08:06 2018 28.0 F. 27.0 F.
Wed Dec 26 07:08:06 2018 30.0 F. 28.0 F.
Wed Dec 26 08:08:05 2018 31.0 F. 30.0 F.
Wed Dec 26 09:08:06 2018 37.0 F. 33.1 F.
Wed Dec 26 10:08:05 2018 42.0 F. 37.9 F.
Wed Dec 26 11:08:06 2018 46.0 F. 39.9 F.
Wed Dec 26 12:08:05 2018 50.0 F. 42.1 F.
Wed Dec 26 13:08:05 2018 52.0 F. 42.1 F.
Wed Dec 26 14:08:06 2018 52.0 F. 42.1 F.
Wed Dec 26 15:08:05 2018 52.0 F. 42.1 F.
Wed Dec 26 16:08:06 2018 51.0 F. 42.1 F.
Wed Dec 26 17:08:06 2018 51.0 F. 42.1 F.
Wed Dec 26 18:08:05 2018 49.0 F. 44.1 F.
Wed Dec 26 19:08:05 2018 47.0 F. 45.0 F.
Wed Dec 26 20:08:06 2018 47.0 F. 46.0 F.
Wed Dec 26 21:08:05 2018 47.0 F. 45.0 F.
Wed Dec 26 22:08:06 2018 48.0 F. 44.1 F.
Wed Dec 26 23:08:06 2018 49.0 F. 44.1 F.
Thu Dec 27 00:08:05 2018 50.0 F. 44.1 F.
Thu Dec 27 01:08:05 2018 50.0 F. 43.0 F.
Thu Dec 27 02:08:05 2018 52.0 F. 43.0 F.
Thu Dec 27 03:08:05 2018 50.0 F. 45.0 F.
Thu Dec 27 04:08:04 2018 50.0 F. 44.1 F.
Thu Dec 27 05:08:05 2018 49.0 F. 44.1 F.
Thu Dec 27 06:08:05 2018 49.0 F. 46.0 F.
Thu Dec 27 07:08:05 2018 48.0 F. 46.0 F.
Thu Dec 27 08:08:05 2018 49.0 F. 46.0 F.
Thu Dec 27 09:08:05 2018 49.0 F. 46.0 F.
Thu Dec 27 10:08:06 2018 49.0 F. 46.9 F.
Thu Dec 27 11:08:06 2018 49.0 F. 48.0 F.
Thu Dec 27 12:08:05 2018 51.0 F. 50.0 F.
Thu Dec 27 13:08:09 2018 52.0 F. 51.1 F.
Thu Dec 27 14:08:05 2018 55.0 F. 52.0 F.
Thu Dec 27 15:08:05 2018 56.0 F. 52.0 F.
Thu Dec 27 16:08:05 2018 56.0 F. 52.0 F.
Thu Dec 27 17:08:05 2018 56.0 F. 52.0 F.
Thu Dec 27 18:08:07 2018 57.0 F. 52.0 F.
Thu Dec 27 19:08:05 2018 57.0 F. 53.1 F.
Thu Dec 27 20:08:05 2018 57.0 F. 53.1 F.
Thu Dec 27 21:08:06 2018 56.0 F. 52.0 F.
Thu Dec 27 22:08:05 2018 56.0 F. 52.0 F.
Thu Dec 27 23:08:05 2018 56.0 F. 50.0 F.
Fri Dec 28 00:08:05 2018 54.0 F. 50.0 F.
Fri Dec 28 01:08:06 2018 53.0 F. 50.0 F.
Fri Dec 28 02:08:05 2018 53.0 F. 50.0 F.
Fri Dec 28 03:08:05 2018 54.0 F. 50.0 F.
Fri Dec 28 04:08:05 2018 53.0 F. 48.9 F.
Fri Dec 28 05:08:05 2018 52.0 F. 46.0 F.
Fri Dec 28 06:08:05 2018 48.0 F. 39.9 F.
Fri Dec 28 07:08:05 2018 41.0 F. 33.1 F.
Fri Dec 28 08:08:05 2018 38.0 F. 32.0 F.
Fri Dec 28 09:08:05 2018 38.0 F. 30.9 F.
Fri Dec 28 10:08:06 2018 38.0 F. 30.0 F.
Fri Dec 28 11:08:05 2018 38.0 F. 28.9 F.
Fri Dec 28 12:08:06 2018 39.0 F. 28.9 F.
Fri Dec 28 13:08:05 2018 38.0 F. 28.9 F.
Fri Dec 28 14:08:05 2018 38.0 F. 28.0 F.
Fri Dec 28 15:08:05 2018 38.0 F. 28.0 F.
Fri Dec 28 16:08:05 2018 37.0 F. 27.0 F.
Fri Dec 28 17:08:06 2018 37.0 F. 27.0 F.
Fri Dec 28 18:08:06 2018 36.0 F. 27.0 F.
Fri Dec 28 19:08:05 2018 35.0 F. 26.1 F.
Fri Dec 28 20:08:05 2018 34.0 F. 25.0 F.
Fri Dec 28 21:08:06 2018 34.0 F. 25.0 F.
Fri Dec 28 22:08:05 2018 34.0 F. 24.1 F.
Fri Dec 28 23:08:05 2018 33.0 F. 23.0 F.
Sat Dec 29 00:08:04 2018 32.0 F. 24.1 F.
Sat Dec 29 01:08:05 2018 32.0 F. 23.0 F.
Sat Dec 29 02:08:05 2018 31.0 F. 24.1 F.
Sat Dec 29 03:08:05 2018 30.0 F. 23.0 F.
Sat Dec 29 04:08:05 2018 30.0 F. 21.9 F.
Sat Dec 29 05:08:04 2018 30.0 F. 21.9 F.
Sat Dec 29 06:08:05 2018 29.0 F. 21.9 F.
Sat Dec 29 07:08:06 2018 29.0 F. 21.9 F.
Sat Dec 29 08:08:05 2018 29.0 F. 21.9 F.
Sat Dec 29 09:08:06 2018 30.0 F. 21.9 F.
Sat Dec 29 10:08:04 2018 30.0 F. 21.9 F.
Sat Dec 29 11:08:05 2018 30.0 F. 21.9 F.
Sat Dec 29 12:08:05 2018 31.0 F. 23.0 F.
Sat Dec 29 13:08:05 2018 31.0 F. 23.0 F.
Sat Dec 29 14:08:05 2018 31.0 F. 24.1 F.
Sat Dec 29 15:08:06 2018 31.0 F. 24.1 F.
Sat Dec 29 16:08:05 2018 32.0 F. 24.1 F.
Sat Dec 29 17:08:05 2018 31.0 F. 24.1 F.
Sat Dec 29 18:08:05 2018 31.0 F. 25.0 F.
Sat Dec 29 19:08:05 2018 31.0 F. 25.0 F.
Sat Dec 29 20:08:05 2018 31.0 F. 25.0 F.
Sat Dec 29 21:08:05 2018 31.0 F. 25.0 F.
Sat Dec 29 22:08:06 2018 31.0 F. 26.1 F.
Sat Dec 29 23:08:05 2018 32.0 F. 26.1 F.
Sun Dec 30 00:08:05 2018 32.0 F. 27.0 F.
Sun Dec 30 01:08:06 2018 32.0 F. 27.0 F.
Sun Dec 30 02:08:06 2018 31.0 F. 27.0 F.
Sun Dec 30 03:08:06 2018 28.0 F. 26.1 F.
Sun Dec 30 04:08:04 2018 27.0 F. 26.1 F.
Sun Dec 30 05:08:05 2018 27.0 F. 25.0 F.
Sun Dec 30 06:08:05 2018 27.0 F. 26.1 F.
Sun Dec 30 07:08:05 2018 28.0 F. 26.1 F.
Sun Dec 30 08:08:05 2018 29.0 F. 27.0 F.
Sun Dec 30 09:08:05 2018 30.0 F. 28.0 F.
Sun Dec 30 10:08:05 2018 34.0 F. 28.9 F.
Sun Dec 30 11:08:05 2018 38.0 F. 28.9 F.
Sun Dec 30 12:08:05 2018 40.0 F. 30.0 F.
Sun Dec 30 13:08:05 2018 42.0 F. 30.9 F.
Sun Dec 30 14:08:06 2018 45.0 F. 32.0 F.
Sun Dec 30 15:08:05 2018 46.0 F. 33.1 F.
Sun Dec 30 16:08:05 2018 47.0 F. 33.1 F.
Sun Dec 30 17:08:05 2018 44.0 F. 34.0 F.
Sun Dec 30 18:08:06 2018 44.0 F. 35.1 F.
Sun Dec 30 19:08:05 2018 44.0 F. 33.1 F.
Sun Dec 30 20:08:08 2018 44.0 F. 34.0 F.
Sun Dec 30 21:08:05 2018 42.0 F. 36.0 F.
Sun Dec 30 22:08:10 2018 41.0 F. 37.9 F.
Sun Dec 30 23:08:05 2018 42.0 F. 39.0 F.
Mon Dec 31 00:08:05 2018 42.0 F. 39.9 F.
Mon Dec 31 01:08:05 2018 42.0 F. 41.0 F.
Mon Dec 31 02:08:05 2018 42.0 F. 42.1 F.
Mon Dec 31 03:08:06 2018 42.0 F. 42.1 F.
Mon Dec 31 04:08:05 2018 44.0 F. 43.0 F.
Mon Dec 31 05:08:05 2018 45.0 F. 44.1 F.
Mon Dec 31 06:08:05 2018 44.0 F. 44.1 F.
Mon Dec 31 07:08:05 2018 46.0 F. 46.0 F.
Mon Dec 31 08:08:05 2018 51.0 F. 51.1 F.
Mon Dec 31 09:08:06 2018 54.0 F. 53.1 F.
Mon Dec 31 10:08:04 2018 56.0 F. 55.9 F.
Mon Dec 31 11:08:05 2018 61.0 F. 61.0 F.
Mon Dec 31 12:08:05 2018 61.0 F. 57.9 F.
Mon Dec 31 13:08:05 2018 60.0 F. 57.0 F.
Mon Dec 31 14:08:05 2018 59.0 F. 55.9 F.
Mon Dec 31 15:08:05 2018 57.0 F. 53.1 F.
Mon Dec 31 16:08:05 2018 55.0 F. 48.9 F.
Mon Dec 31 17:08:05 2018 53.0 F. 46.9 F.
Mon Dec 31 18:08:05 2018 52.0 F. 45.0 F.
Mon Dec 31 19:08:05 2018 50.0 F. 39.9 F.
Mon Dec 31 20:08:06 2018 47.0 F. 39.0 F.
Mon Dec 31 21:08:05 2018 47.0 F. 39.0 F.
Mon Dec 31 22:08:05 2018 46.0 F. 37.9 F.
Mon Dec 31 23:08:05 2018 46.0 F. 39.0 F.
Tue Jan 1 00:08:05 2019 45.0 F. 39.0 F.
Tue Jan 1 01:08:05 2019 44.0 F. 37.9 F.
Tue Jan 1 02:08:05 2019 43.0 F. 37.9 F.
Tue Jan 1 03:08:05 2019 43.0 F. 37.0 F.
Tue Jan 1 04:08:05 2019 42.0 F. 37.0 F.
Tue Jan 1 05:08:04 2019 42.0 F. 36.0 F.
Tue Jan 1 06:08:04 2019 42.0 F. 36.0 F.
Tue Jan 1 07:08:05 2019 42.0 F. 37.0 F.
Tue Jan 1 08:08:05 2019 41.0 F. 37.0 F.
Tue Jan 1 09:08:05 2019 41.0 F. 37.0 F.
Tue Jan 1 10:08:05 2019 40.0 F. 36.0 F.
Tue Jan 1 11:08:05 2019 39.0 F. 36.0 F.
Tue Jan 1 12:08:05 2019 38.0 F. 36.0 F.
Tue Jan 1 13:08:05 2019 39.0 F. 34.0 F.
Tue Jan 1 14:08:05 2019 39.0 F. 35.1 F.
Tue Jan 1 15:08:06 2019 39.0 F. 33.1 F.
Tue Jan 1 16:08:06 2019 38.0 F. 33.1 F.
Tue Jan 1 17:08:05 2019 38.0 F. 33.1 F.
Tue Jan 1 18:08:06 2019 38.0 F. 32.0 F.
Tue Jan 1 19:08:06 2019 37.0 F. 33.1 F.
Tue Jan 1 20:08:06 2019 37.0 F. 33.1 F.
Tue Jan 1 21:08:09 2019 36.0 F. 32.0 F.
Tue Jan 1 22:08:05 2019 36.0 F. 32.0 F.
Tue Jan 1 23:08:05 2019 36.0 F. 32.0 F.
Wed Jan 2 00:08:05 2019 35.0 F. 32.0 F.
Wed Jan 2 01:08:05 2019 35.0 F. 32.0 F.
Wed Jan 2 02:08:04 2019 35.0 F. 30.9 F.
Wed Jan 2 03:08:05 2019 35.0 F. 30.9 F.
Wed Jan 2 04:08:05 2019 34.0 F. 30.9 F.
Wed Jan 2 05:08:05 2019 34.0 F. 30.9 F.
Wed Jan 2 06:08:05 2019 34.0 F. 30.9 F.
Wed Jan 2 07:08:05 2019 34.0 F. 30.9 F.
Wed Jan 2 08:08:05 2019 34.0 F. 30.9 F.
Wed Jan 2 09:08:04 2019 34.0 F. 30.9 F.
Wed Jan 2 10:08:05 2019 34.0 F. 30.0 F.
Wed Jan 2 11:08:05 2019 35.0 F. 30.0 F.
Wed Jan 2 12:08:06 2019 36.0 F. 30.9 F.
Wed Jan 2 13:08:05 2019 37.0 F. 30.0 F.
Wed Jan 2 14:08:05 2019 37.0 F. 30.9 F.
Wed Jan 2 15:08:05 2019 37.0 F. 30.9 F.
Wed Jan 2 16:08:05 2019 38.0 F. 30.9 F.
Wed Jan 2 17:08:06 2019 37.0 F. 30.9 F.
Wed Jan 2 18:08:05 2019 37.0 F. 30.9 F.
Wed Jan 2 19:08:05 2019 37.0 F. 30.0 F.
Wed Jan 2 20:08:05 2019 37.0 F. 30.9 F.
Wed Jan 2 21:08:05 2019 36.0 F. 30.9 F.
Wed Jan 2 22:08:05 2019 36.0 F. 30.0 F.
Wed Jan 2 23:08:05 2019 35.0 F. 30.0 F.
Thu Jan 3 00:08:05 2019 34.0 F. 28.0 F.
Thu Jan 3 01:08:06 2019 33.0 F. 27.0 F.
Thu Jan 3 02:08:06 2019 32.0 F. 27.0 F.
Thu Jan 3 03:08:05 2019 32.0 F. 27.0 F.
Thu Jan 3 04:08:06 2019 32.0 F. 27.0 F.
Thu Jan 3 05:08:05 2019 30.0 F. 27.0 F.
Thu Jan 3 06:08:06 2019 29.0 F. 26.1 F.
Thu Jan 3 07:08:06 2019 28.0 F. 26.1 F.
Thu Jan 3 08:08:06 2019 28.0 F. 26.1 F.
Thu Jan 3 09:08:06 2019 32.0 F. 27.0 F.
Thu Jan 3 10:08:06 2019 34.0 F. 27.0 F.
Thu Jan 3 11:08:05 2019 36.0 F. 27.0 F.
Thu Jan 3 12:08:05 2019 38.0 F. 28.0 F.
Thu Jan 3 13:08:05 2019 40.0 F. 28.0 F.
Thu Jan 3 14:08:05 2019 41.0 F. 28.0 F.
Thu Jan 3 15:08:06 2019 41.0 F. 28.0 F.
Thu Jan 3 16:08:05 2019 41.0 F. 28.9 F.
Thu Jan 3 17:08:07 2019 38.0 F. 28.9 F.
Thu Jan 3 18:08:06 2019 36.0 F. 28.9 F.
Thu Jan 3 19:08:05 2019 36.0 F. 28.9 F.
Thu Jan 3 20:08:05 2019 35.0 F. 28.9 F.
Thu Jan 3 21:08:05 2019 33.0 F. 30.0 F.
Thu Jan 3 22:08:06 2019 34.0 F. 28.9 F.
Thu Jan 3 23:08:05 2019 33.0 F. 28.9 F.
Fri Jan 4 00:08:05 2019 32.0 F. 28.9 F.
Fri Jan 4 01:08:05 2019 33.0 F. 30.0 F.
Fri Jan 4 02:08:05 2019 32.0 F. 28.9 F.
Fri Jan 4 03:08:05 2019 32.0 F. 28.9 F.
Fri Jan 4 04:08:05 2019 34.0 F. 30.9 F.
Fri Jan 4 05:08:04 2019 35.0 F. 30.9 F.
Fri Jan 4 06:08:06 2019 36.0 F. 32.0 F.
Fri Jan 4 07:08:06 2019 36.0 F. 33.1 F.
Fri Jan 4 08:08:05 2019 37.0 F. 34.0 F.
Fri Jan 4 09:08:05 2019 37.0 F. 35.1 F.
Fri Jan 4 10:08:05 2019 37.0 F. 35.1 F.
Fri Jan 4 11:08:06 2019 37.0 F. 34.0 F.
Fri Jan 4 12:08:05 2019 37.0 F. 34.0 F.
Fri Jan 4 13:08:06 2019 37.0 F. 35.1 F.
Fri Jan 4 14:08:05 2019 37.0 F. 34.0 F.
Fri Jan 4 15:08:06 2019 37.0 F. 35.1 F.
Fri Jan 4 16:08:05 2019 39.0 F. 35.1 F.
Fri Jan 4 17:08:05 2019 38.0 F. 34.0 F.
Fri Jan 4 18:08:06 2019 39.0 F. 33.1 F.
Fri Jan 4 19:08:05 2019 37.0 F. 32.0 F.
Fri Jan 4 20:08:05 2019 37.0 F. 32.0 F.
Fri Jan 4 21:08:05 2019 35.0 F. 32.0 F.
Fri Jan 4 22:08:06 2019 33.0 F. 30.9 F.
Fri Jan 4 23:08:06 2019 33.0 F. 30.0 F.
Sat Jan 5 00:08:05 2019 32.0 F. 30.0 F.
Sat Jan 5 01:08:05 2019 33.0 F. 30.0 F.
Sat Jan 5 02:08:05 2019 32.0 F. 28.9 F.
Sat Jan 5 03:08:06 2019 32.0 F. 28.9 F.
Sat Jan 5 04:08:05 2019 34.0 F. 28.9 F.
Sat Jan 5 05:08:05 2019 34.0 F. 30.0 F.
Sat Jan 5 06:08:05 2019 34.0 F. 28.9 F.
Sat Jan 5 07:08:05 2019 35.0 F. 28.9 F.
Sat Jan 5 08:08:05 2019 32.0 F. 30.0 F.
Sat Jan 5 09:08:05 2019 39.0 F. 33.1 F.
Sat Jan 5 10:08:05 2019 46.0 F. 36.0 F.
Sat Jan 5 11:08:06 2019 49.0 F. 36.0 F.
Sat Jan 5 12:08:05 2019 51.0 F. 37.0 F.
Sat Jan 5 13:08:06 2019 54.0 F. 37.9 F.
Sat Jan 5 14:08:05 2019 56.0 F. 39.0 F.
Sat Jan 5 15:08:06 2019 58.0 F. 39.0 F.
Sat Jan 5 16:08:05 2019 55.0 F. 42.1 F.
Sat Jan 5 17:08:40 2019
Sat Jan 5 18:08:05 2019 46.0 F. 37.9 F.
Sat Jan 5 19:08:05 2019 46.0 F. 39.0 F.
Sat Jan 5 20:08:05 2019 46.0 F. 39.9 F.
Sat Jan 5 21:08:05 2019 45.0 F. 41.0 F.
Sat Jan 5 22:08:05 2019 45.0 F. 41.0 F.
Sat Jan 5 23:08:08 2019 43.0 F. 41.0 F.
Sun Jan 6 00:08:05 2019 43.0 F. 39.9 F.
Sun Jan 6 01:08:05 2019 41.0 F. 39.0 F.
Sun Jan 6 02:08:05 2019 38.0 F. 37.0 F.
Sun Jan 6 03:08:05 2019 38.0 F. 37.9 F.
Sun Jan 6 04:08:05 2019 34.0 F. 33.1 F.
Sun Jan 6 05:08:04 2019 34.0 F. 33.1 F.
Sun Jan 6 06:08:05 2019 34.0 F. 33.1 F.
Sun Jan 6 07:08:05 2019 33.0 F. 33.1 F.
Sun Jan 6 08:08:05 2019 34.0 F. 33.1 F.
Sun Jan 6 09:08:05 2019 38.0 F. 37.0 F.
Sun Jan 6 10:08:06 2019 44.0 F. 42.1 F.
Sun Jan 6 11:08:06 2019 50.0 F. 44.1 F.
Sun Jan 6 12:08:05 2019 53.0 F. 45.0 F.
Sun Jan 6 13:08:19 2019 56.0 F. 46.0 F.
Sun Jan 6 14:08:05 2019 58.0 F. 45.0 F.
Sun Jan 6 15:08:05 2019 58.0 F. 46.0 F.
Sun Jan 6 16:08:06 2019 56.0 F. 45.0 F.
Sun Jan 6 17:08:05 2019 54.0 F. 45.0 F.
Sun Jan 6 18:08:06 2019 54.0 F. 44.1 F.
Sun Jan 6 19:08:06 2019 53.0 F. 44.1 F.
Sun Jan 6 20:08:06 2019 53.0 F. 43.0 F.
Sun Jan 6 21:08:05 2019 54.0 F. 43.0 F.
Sun Jan 6 22:08:05 2019 55.0 F. 43.0 F.
Sun Jan 6 23:08:05 2019 55.0 F. 43.0 F.
Mon Jan 7 00:08:05 2019 55.0 F. 43.0 F.
Mon Jan 7 01:08:06 2019 54.0 F. 43.0 F.
Mon Jan 7 02:08:06 2019 54.0 F. 44.1 F.
Mon Jan 7 03:08:05 2019 56.0 F. 43.0 F.
Mon Jan 7 04:08:04 2019 56.0 F. 43.0 F.
Mon Jan 7 05:08:05 2019 56.0 F. 42.1 F.
Mon Jan 7 06:08:05 2019 55.0 F. 42.1 F.
Mon Jan 7 07:08:05 2019 55.0 F. 44.1 F.
Mon Jan 7 08:08:06 2019 54.0 F. 45.0 F.
Mon Jan 7 09:08:05 2019 54.0 F. 46.9 F.
Mon Jan 7 10:08:06 2019 55.0 F. 48.9 F.
Mon Jan 7 11:08:05 2019 54.0 F. 51.1 F.
Mon Jan 7 12:08:05 2019 54.0 F. 52.0 F.
Mon Jan 7 13:08:05 2019 55.0 F. 52.0 F.
Mon Jan 7 14:08:05 2019 56.0 F. 53.1 F.
Mon Jan 7 15:08:05 2019 56.0 F. 54.0 F.
Mon Jan 7 16:08:07 2019 56.0 F. 54.0 F.
Mon Jan 7 17:08:05 2019 57.0 F. 54.0 F.
Mon Jan 7 18:08:05 2019 57.0 F. 54.0 F.
Mon Jan 7 19:08:06 2019 57.0 F. 54.0 F.
Mon Jan 7 20:08:05 2019 58.0 F. 55.0 F.
Mon Jan 7 21:08:05 2019 57.0 F. 54.0 F.
Mon Jan 7 22:08:05 2019 55.0 F. 53.1 F.
Mon Jan 7 23:08:06 2019 54.0 F. 53.1 F.
Tue Jan 8 00:08:05 2019 56.0 F. 54.0 F.
Tue Jan 8 01:08:05 2019 57.0 F. 54.0 F.
Tue Jan 8 02:08:05 2019 56.0 F. 54.0 F.
Tue Jan 8 03:08:04 2019 55.0 F. 53.1 F.
Tue Jan 8 04:08:05 2019 52.0 F. 51.1 F.
Tue Jan 8 05:08:05 2019 50.0 F. 50.0 F.
Tue Jan 8 06:08:05 2019 50.0 F. 48.9 F.
Tue Jan 8 07:08:05 2019 49.0 F. 48.0 F.
Tue Jan 8 08:08:05 2019 51.0 F. 46.9 F.
Tue Jan 8 09:08:05 2019 54.0 F. 43.0 F.
Tue Jan 8 10:08:05 2019 56.0 F. 37.9 F.
Tue Jan 8 11:08:06 2019 56.0 F. 35.1 F.
Tue Jan 8 12:08:07 2019 55.0 F. 34.0 F.
Tue Jan 8 13:08:05 2019 54.0 F. 36.0 F.
Tue Jan 8 14:08:05 2019 53.0 F. 35.1 F.
Tue Jan 8 15:08:05 2019 52.0 F. 33.1 F.
Tue Jan 8 16:08:05 2019 51.0 F. 28.9 F.
Tue Jan 8 17:08:07 2019 49.0 F. 28.9 F.
Tue Jan 8 18:08:05 2019 46.0 F. 28.0 F.
Tue Jan 8 19:08:05 2019 46.0 F. 26.1 F.
Tue Jan 8 20:08:06 2019 45.0 F. 24.1 F.
Tue Jan 8 21:08:06 2019 44.0 F. 24.1 F.
Tue Jan 8 22:08:05 2019 45.0 F. 24.1 F.
Tue Jan 8 23:08:05 2019 44.0 F. 25.0 F.
Wed Jan 9 00:08:05 2019 43.0 F. 25.0 F.
Wed Jan 9 01:08:05 2019 41.0 F. 24.1 F.
Wed Jan 9 02:08:05 2019 40.0 F. 21.0 F.
Wed Jan 9 03:08:05 2019 39.0 F. 19.9 F.
Wed Jan 9 04:08:05 2019 37.0 F. 18.0 F.
Wed Jan 9 05:08:04 2019 36.0 F. 19.0 F.
Wed Jan 9 06:08:05 2019 35.0 F. 18.0 F.
Wed Jan 9 07:08:05 2019 33.0 F. 19.0 F.
Wed Jan 9 08:08:05 2019 34.0 F. 17.1 F.
Wed Jan 9 09:08:06 2019 35.0 F. 19.0 F.
Wed Jan 9 10:08:05 2019 36.0 F. 18.0 F.
Wed Jan 9 11:08:05 2019 37.0 F. 19.0 F.
Wed Jan 9 12:08:05 2019 38.0 F. 21.0 F.
Wed Jan 9 13:08:05 2019 38.0 F. 19.9 F.
Wed Jan 9 14:08:05 2019 38.0 F. 19.0 F.
Wed Jan 9 15:08:05 2019 38.0 F. 18.0 F.
Wed Jan 9 16:08:05 2019 37.0 F. 19.0 F.
Wed Jan 9 17:08:06 2019 35.0 F. 18.0 F.
Wed Jan 9 18:08:05 2019 33.0 F. 19.0 F.
Wed Jan 9 19:08:06 2019 32.0 F. 19.0 F.
Wed Jan 9 20:08:05 2019 30.0 F. 19.0 F.
Wed Jan 9 21:08:05 2019 29.0 F. 18.0 F.
Wed Jan 9 22:08:05 2019 28.0 F. 18.0 F.
Wed Jan 9 23:08:06 2019 28.0 F. 18.0 F.
Thu Jan 10 00:08:05 2019 26.0 F. 17.1 F.
Thu Jan 10 01:08:05 2019 26.0 F. 17.1 F.
Thu Jan 10 02:08:05 2019 25.0 F. 16.0 F.
Thu Jan 10 03:08:05 2019 24.0 F. 16.0 F.
Thu Jan 10 04:08:05 2019 24.0 F. 16.0 F.
Thu Jan 10 05:08:05 2019 23.0 F. 14.0 F.
Thu Jan 10 06:08:05 2019 23.0 F. 15.1 F.
Thu Jan 10 07:08:06 2019 21.0 F. 15.1 F.
Thu Jan 10 08:08:05 2019 23.0 F. 14.0 F.
Thu Jan 10 09:08:06 2019 24.0 F. 14.0 F.
Thu Jan 10 10:08:05 2019 26.0 F. 15.1 F.
Thu Jan 10 11:08:06 2019 28.0 F. 16.0 F.
Thu Jan 10 12:08:06 2019 29.0 F. 17.1 F.
Thu Jan 10 13:08:06 2019 32.0 F. 17.1 F.
Thu Jan 10 14:08:05 2019 33.0 F. 17.1 F.
Thu Jan 10 15:08:05 2019 33.0 F. 17.1 F.
Thu Jan 10 16:08:05 2019 33.0 F. 18.0 F.
Thu Jan 10 17:08:06 2019 31.0 F. 19.0 F.
Thu Jan 10 18:08:05 2019 28.0 F. 19.0 F.
Thu Jan 10 19:08:05 2019 28.0 F. 18.0 F.
Thu Jan 10 20:08:06 2019 27.0 F. 18.0 F.
Thu Jan 10 21:08:06 2019 26.0 F. 18.0 F.
Thu Jan 10 22:08:05 2019 25.0 F. 18.0 F.
Thu Jan 10 23:08:05 2019 25.0 F. 18.0 F.
Fri Jan 11 00:08:05 2019 23.0 F. 17.1 F.
Fri Jan 11 01:08:05 2019 22.0 F. 17.1 F.
Fri Jan 11 02:08:05 2019 22.0 F. 17.1 F.
Fri Jan 11 03:08:05 2019 23.0 F. 18.0 F.
Fri Jan 11 04:08:04 2019 22.0 F. 18.0 F.
Fri Jan 11 05:08:05 2019 24.0 F. 19.9 F.
Fri Jan 11 06:08:05 2019 25.0 F. 21.0 F.
Fri Jan 11 07:08:05 2019 26.0 F. 21.0 F.
Fri Jan 11 08:08:05 2019 27.0 F. 19.9 F.
Fri Jan 11 09:08:05 2019 28.0 F. 19.9 F.
Fri Jan 11 10:08:07 2019 29.0 F. 19.9 F.
Fri Jan 11 11:08:06 2019 30.0 F. 19.9 F.
Fri Jan 11 12:08:06 2019 31.0 F. 21.9 F.
Fri Jan 11 13:08:05 2019 32.0 F. 21.0 F.
Fri Jan 11 14:08:06 2019 32.0 F. 21.9 F.
Fri Jan 11 15:08:06 2019 32.0 F. 23.0 F.
Fri Jan 11 16:08:07 2019 32.0 F. 23.0 F.
Fri Jan 11 17:08:05 2019 29.0 F. 27.0 F.
Fri Jan 11 18:08:05 2019 28.0 F. 27.0 F.
Fri Jan 11 19:08:06 2019 29.0 F. 27.0 F.
Fri Jan 11 20:08:05 2019 29.0 F. 27.0 F.
Fri Jan 11 21:08:06 2019 29.0 F. 28.0 F.
Fri Jan 11 22:08:05 2019 30.0 F. 28.0 F.
Fri Jan 11 23:08:05 2019 30.0 F. 28.9 F.
Sat Jan 12 00:08:05 2019 31.0 F. 28.9 F.
Sat Jan 12 01:08:05 2019 31.0 F. 30.0 F.
Sat Jan 12 02:08:05 2019 31.0 F. 30.0 F.
Sat Jan 12 03:08:05 2019 32.0 F. 30.9 F.
Sat Jan 12 04:08:05 2019 32.0 F. 30.0 F.
Sat Jan 12 05:08:05 2019 32.0 F. 30.9 F.
Sat Jan 12 06:08:05 2019 32.0 F. 30.9 F.
Sat Jan 12 07:08:05 2019 33.0 F. 30.9 F.
Sat Jan 12 08:08:06 2019 33.0 F. 30.9 F.
Sat Jan 12 09:08:05 2019 33.0 F. 30.9 F.
Sat Jan 12 10:08:07 2019 33.0 F. 30.9 F.
Sat Jan 12 11:08:04 2019 34.0 F. 32.0 F.
Sat Jan 12 12:08:07 2019 35.0 F. 32.0 F.
Sat Jan 12 13:08:05 2019 35.0 F. 32.0 F.
Sat Jan 12 14:08:05 2019 36.0 F. 33.1 F.
Sat Jan 12 15:08:05 2019 36.0 F. 34.0 F.
Sat Jan 12 16:08:05 2019 35.0 F. 34.0 F.
Sat Jan 12 17:08:06 2019 34.0 F. 34.0 F.
Sat Jan 12 18:08:05 2019 35.0 F. 34.0 F.
Sat Jan 12 19:08:06 2019 35.0 F. 34.0 F.
Sat Jan 12 20:08:05 2019 35.0 F. 34.0 F.
Sat Jan 12 21:08:05 2019 35.0 F. 34.0 F.
Sat Jan 12 22:08:05 2019 35.0 F. 34.0 F.
Sat Jan 12 23:08:05 2019 35.0 F. 34.0 F.
Sun Jan 13 00:08:06 2019 35.0 F. 34.0 F.
Sun Jan 13 01:08:05 2019 34.0 F. 34.0 F.
Sun Jan 13 02:08:05 2019 34.0 F. 33.1 F.
Sun Jan 13 03:08:05 2019 34.0 F. 33.1 F.
Sun Jan 13 04:08:05 2019 34.0 F. 33.1 F.
Sun Jan 13 05:08:05 2019 33.0 F. 33.1 F.
Sun Jan 13 06:08:05 2019 33.0 F. 33.1 F.
Sun Jan 13 07:08:05 2019 33.0 F. 32.0 F.
Sun Jan 13 08:08:06 2019 33.0 F. 32.0 F.
Sun Jan 13 09:08:05 2019 33.0 F. 32.0 F.
Sun Jan 13 10:08:05 2019 32.0 F. 30.9 F.
Sun Jan 13 11:08:04 2019 32.0 F. 30.9 F.
Sun Jan 13 12:09:00 2019
Sun Jan 13 13:09:00 2019
Sun Jan 13 14:09:00 2019
Sun Jan 13 15:08:41 2019
Sun Jan 13 16:08:40 2019
Sun Jan 13 17:08:39 2019
Sun Jan 13 18:08:40 2019
Sun Jan 13 19:08:29 2019 31.0 F. 28.0 F.
Sun Jan 13 20:08:51 2019
Sun Jan 13 21:09:01 2019
Sun Jan 13 22:09:00 2019
Sun Jan 13 23:09:00 2019
Mon Jan 14 00:08:59 2019
Mon Jan 14 01:09:00 2019
Mon Jan 14 02:09:00 2019
Mon Jan 14 03:09:00 2019
Mon Jan 14 04:09:00 2019
Mon Jan 14 05:09:21 2019
Mon Jan 14 06:08:29 2019 27.0 F. 24.1 F.
Mon Jan 14 07:09:00 2019
Mon Jan 14 08:09:00 2019
Mon Jan 14 09:09:00 2019
Mon Jan 14 10:08:59 2019
Mon Jan 14 11:08:05 2019 30.0 F. 24.1 F.
Mon Jan 14 12:08:05 2019 31.0 F. 25.0 F.
Mon Jan 14 13:08:05 2019 31.0 F. 25.0 F.
Mon Jan 14 14:08:05 2019 31.0 F. 27.0 F.
Mon Jan 14 15:08:05 2019 31.0 F. 27.0 F.
Mon Jan 14 16:08:05 2019 32.0 F. 28.0 F.
Mon Jan 14 17:08:05 2019 32.0 F. 27.0 F.
Mon Jan 14 18:08:06 2019 32.0 F. 28.0 F.
Mon Jan 14 19:08:05 2019 32.0 F. 28.0 F.
Mon Jan 14 20:08:06 2019 32.0 F. 28.9 F.
Mon Jan 14 21:08:05 2019 32.0 F. 28.9 F.
Mon Jan 14 22:08:05 2019 32.0 F. 28.9 F.
Mon Jan 14 23:08:05 2019 32.0 F. 28.9 F.
Tue Jan 15 00:08:05 2019 32.0 F. 28.9 F.
Tue Jan 15 01:08:05 2019 32.0 F. 28.9 F.
Tue Jan 15 02:08:05 2019 32.0 F. 28.9 F.
Tue Jan 15 03:08:05 2019 33.0 F. 28.0 F.
Tue Jan 15 04:08:05 2019 33.0 F. 28.0 F.
Tue Jan 15 05:08:05 2019 32.0 F. 27.0 F.
Tue Jan 15 06:08:05 2019 32.0 F. 28.0 F.
Tue Jan 15 07:08:05 2019 32.0 F. 27.0 F.
Tue Jan 15 08:08:05 2019 32.0 F. 27.0 F.
Tue Jan 15 09:08:05 2019 32.0 F. 28.0 F.
Tue Jan 15 10:08:06 2019 32.0 F. 28.0 F.
Tue Jan 15 11:08:05 2019 33.0 F. 28.9 F.
Tue Jan 15 12:08:05 2019 34.0 F. 28.9 F.
Tue Jan 15 13:08:05 2019 34.0 F. 30.0 F.
Tue Jan 15 14:08:06 2019 35.0 F. 30.0 F.
Tue Jan 15 15:08:05 2019 35.0 F. 30.9 F.
Tue Jan 15 16:08:05 2019 35.0 F. 30.0 F.
Tue Jan 15 17:08:05 2019 34.0 F. 30.0 F.
Tue Jan 15 18:08:05 2019 35.0 F. 32.0 F.
Tue Jan 15 19:08:06 2019 36.0 F. 32.0 F.
Tue Jan 15 20:08:06 2019 36.0 F. 32.0 F.
Tue Jan 15 21:08:05 2019 36.0 F. 33.1 F.
Tue Jan 15 22:08:05 2019 36.0 F. 32.0 F.
Tue Jan 15 23:08:05 2019 36.0 F. 32.0 F.
Wed Jan 16 00:08:06 2019 35.0 F. 32.0 F.
Wed Jan 16 01:08:05 2019 36.0 F. 32.0 F.
Wed Jan 16 02:08:05 2019 35.0 F. 32.0 F.
Wed Jan 16 03:08:05 2019 35.0 F. 32.0 F.
Wed Jan 16 04:08:05 2019 33.0 F. 32.0 F.
Wed Jan 16 05:08:05 2019 34.0 F. 33.1 F.
Wed Jan 16 06:08:06 2019 34.0 F. 33.1 F.
Wed Jan 16 07:08:05 2019 35.0 F. 33.1 F.
Wed Jan 16 08:08:06 2019 36.0 F. 33.1 F.
Wed Jan 16 09:08:05 2019 37.0 F. 34.0 F.
Wed Jan 16 10:08:06 2019 38.0 F. 34.0 F.
Wed Jan 16 11:08:05 2019 40.0 F. 35.1 F.
Wed Jan 16 12:08:05 2019 40.0 F. 35.1 F.
Wed Jan 16 13:08:10 2019 42.0 F. 36.0 F.
Wed Jan 16 14:08:05 2019 42.0 F. 37.0 F.
Wed Jan 16 15:08:05 2019 43.0 F. 37.0 F.
Wed Jan 16 16:08:06 2019 44.0 F. 37.0 F.
Wed Jan 16 17:08:05 2019 44.0 F. 37.0 F.
Wed Jan 16 18:08:06 2019 41.0 F. 37.0 F.
Wed Jan 16 19:08:05 2019 41.0 F. 37.0 F.
Wed Jan 16 20:08:05 2019 41.0 F. 37.0 F.
Wed Jan 16 21:08:05 2019 41.0 F. 37.0 F.
Wed Jan 16 22:08:05 2019 41.0 F. 37.0 F.
Wed Jan 16 23:08:05 2019 40.0 F. 37.0 F.
Thu Jan 17 00:08:05 2019 40.0 F. 37.9 F.
Thu Jan 17 01:08:05 2019 41.0 F. 37.9 F.
Thu Jan 17 02:08:05 2019 42.0 F. 39.0 F.
Thu Jan 17 03:08:05 2019 42.0 F. 39.9 F.
Thu Jan 17 04:08:05 2019 42.0 F. 41.0 F.
Thu Jan 17 05:08:05 2019 42.0 F. 41.0 F.
Thu Jan 17 06:08:05 2019 43.0 F. 42.1 F.
Thu Jan 17 07:08:06 2019 43.0 F. 42.1 F.
Thu Jan 17 08:08:05 2019 43.0 F. 42.1 F.
Thu Jan 17 09:08:06 2019 44.0 F. 43.0 F.
Thu Jan 17 10:08:06 2019 44.0 F. 43.0 F.
Thu Jan 17 11:08:05 2019 45.0 F. 43.0 F.
Thu Jan 17 12:08:06 2019 45.0 F. 43.0 F.
Thu Jan 17 13:08:05 2019 45.0 F. 42.1 F.
Thu Jan 17 14:08:05 2019 45.0 F. 41.0 F.
Thu Jan 17 15:08:05 2019 44.0 F. 39.9 F.
Thu Jan 17 16:08:06 2019 45.0 F. 39.9 F.
Thu Jan 17 17:08:10 2019 45.0 F. 41.0 F.
Thu Jan 17 18:08:07 2019 43.0 F. 39.0 F.
Thu Jan 17 19:08:06 2019 42.0 F. 37.9 F.
Thu Jan 17 20:08:05 2019 41.0 F. 37.0 F.
Thu Jan 17 21:08:05 2019 41.0 F. 37.9 F.
Thu Jan 17 22:08:05 2019 40.0 F. 36.0 F.
Thu Jan 17 23:08:05 2019 39.0 F. 36.0 F.
Fri Jan 18 00:08:06 2019 38.0 F. 34.0 F.
Fri Jan 18 01:08:05 2019 38.0 F. 34.0 F.
Fri Jan 18 02:08:05 2019 38.0 F. 34.0 F.
Fri Jan 18 03:08:05 2019 37.0 F. 34.0 F.
Fri Jan 18 04:08:05 2019 37.0 F. 34.0 F.
Fri Jan 18 05:08:05 2019 37.0 F. 33.1 F.
Fri Jan 18 06:08:07 2019 36.0 F. 32.0 F.
Fri Jan 18 07:08:05 2019 36.0 F. 32.0 F.
Fri Jan 18 08:08:05 2019 36.0 F. 32.0 F.
Fri Jan 18 09:08:05 2019 36.0 F. 30.9 F.
Fri Jan 18 10:08:05 2019 36.0 F. 32.0 F.
Fri Jan 18 11:08:05 2019 36.0 F. 32.0 F.
Fri Jan 18 12:08:05 2019 36.0 F. 33.1 F.
Fri Jan 18 13:08:05 2019 36.0 F. 33.1 F.
Fri Jan 18 14:08:05 2019 37.0 F. 33.1 F.
Fri Jan 18 15:08:05 2019 38.0 F. 34.0 F.
Fri Jan 18 16:08:05 2019 38.0 F. 35.1 F.
Fri Jan 18 17:08:05 2019 38.0 F. 35.1 F.
Fri Jan 18 18:08:06 2019 38.0 F. 35.1 F.
Fri Jan 18 19:08:05 2019 38.0 F. 35.1 F.
Fri Jan 18 20:08:05 2019 38.0 F. 36.0 F.
Fri Jan 18 21:08:05 2019 38.0 F. 37.0 F.
Fri Jan 18 22:08:04 2019 39.0 F. 37.0 F.
Fri Jan 18 23:08:06 2019 39.0 F. 37.0 F.
Sat Jan 19 00:08:05 2019 40.0 F. 37.9 F.
Sat Jan 19 01:08:05 2019 39.0 F. 39.0 F.
Sat Jan 19 02:08:05 2019 39.0 F. 37.9 F.
Sat Jan 19 03:08:05 2019 40.0 F. 39.0 F.
Sat Jan 19 04:08:06 2019 40.0 F. 39.0 F.
Sat Jan 19 05:08:05 2019 40.0 F. 39.9 F.
Sat Jan 19 06:08:05 2019 40.0 F. 39.9 F.
Sat Jan 19 07:08:05 2019 40.0 F. 39.9 F.
Sat Jan 19 08:08:05 2019 40.0 F. 39.0 F.
Sat Jan 19 09:08:07 2019 40.0 F. 39.0 F.
Sat Jan 19 10:08:05 2019 38.0 F. 37.0 F.
Sat Jan 19 11:08:06 2019 37.0 F. 36.0 F.
Sat Jan 19 12:08:05 2019 37.0 F. 34.0 F.
Sat Jan 19 13:08:04 2019 36.0 F. 34.0 F.
Sat Jan 19 14:08:05 2019 31.0 F. 28.9 F.
Sat Jan 19 15:08:05 2019 29.0 F. 27.0 F.
Sat Jan 19 16:08:05 2019 28.0 F. 27.0 F.
Sat Jan 19 17:08:06 2019 28.0 F. 26.1 F.
Sat Jan 19 18:08:06 2019 27.0 F. 25.0 F.
Sat Jan 19 19:08:04 2019 27.0 F. 23.0 F.
Sat Jan 19 20:08:06 2019 26.0 F. 21.9 F.
Sat Jan 19 21:08:05 2019 25.0 F. 21.0 F.
Sat Jan 19 22:08:06 2019 25.0 F. 19.9 F.
Sat Jan 19 23:08:05 2019 24.0 F. 19.9 F.
Sun Jan 20 00:08:05 2019 23.0 F. 18.0 F.
Sun Jan 20 01:08:06 2019 22.0 F. 16.0 F.
Sun Jan 20 02:08:05 2019 21.0 F. 16.0 F.
Sun Jan 20 03:08:05 2019 21.0 F. 14.0 F.
Sun Jan 20 04:08:05 2019 20.0 F. 12.9 F.
Sun Jan 20 05:08:05 2019 17.0 F. 10.9 F.
Sun Jan 20 06:08:06 2019 15.0 F. 9.0 F.
Sun Jan 20 07:08:05 2019 14.0 F. 8.1 F.
Sun Jan 20 08:08:05 2019 15.0 F. 8.1 F.
Sun Jan 20 09:08:05 2019 15.0 F. 8.1 F.
Sun Jan 20 10:08:06 2019 16.0 F. 8.1 F.
Sun Jan 20 11:08:05 2019 18.0 F. 9.0 F.
Sun Jan 20 12:08:05 2019 20.0 F. 9.0 F.
Sun Jan 20 13:08:05 2019 20.0 F. 10.0 F.
Sun Jan 20 14:08:05 2019 20.0 F. 10.0 F.
Sun Jan 20 15:08:05 2019 20.0 F. 10.0 F.
Sun Jan 20 16:08:05 2019 20.0 F. 10.0 F.
Sun Jan 20 17:08:05 2019 19.0 F. 15.1 F.
Sun Jan 20 18:08:05 2019 19.0 F. 15.1 F.
Sun Jan 20 19:08:05 2019 18.0 F. 15.1 F.
Sun Jan 20 20:08:05 2019 18.0 F. 14.0 F.
Sun Jan 20 21:08:05 2019 18.0 F. 14.0 F.
Sun Jan 20 22:08:05 2019 18.0 F. 12.9 F.
Sun Jan 20 23:08:10 2019 17.0 F. 12.9 F.
Mon Jan 21 00:08:05 2019 17.0 F. 12.0 F.
Mon Jan 21 01:08:05 2019 15.0 F. 10.9 F.
Mon Jan 21 02:08:05 2019 10.0 F. 8.1 F.
Mon Jan 21 03:08:05 2019 10.0 F. 8.1 F.
Mon Jan 21 04:08:05 2019 11.0 F. 9.0 F.
Mon Jan 21 05:08:05 2019 11.0 F. 9.0 F.
Mon Jan 21 06:08:05 2019 14.0 F. 10.0 F.
Mon Jan 21 07:08:05 2019 13.0 F. 10.0 F.
Mon Jan 21 08:08:05 2019 13.0 F. 10.0 F.
Mon Jan 21 09:08:05 2019 13.0 F. 10.0 F.
Mon Jan 21 10:08:05 2019 18.0 F. 12.0 F.
Mon Jan 21 11:08:05 2019 20.0 F. 12.9 F.
Mon Jan 21 12:08:05 2019 22.0 F. 14.0 F.
Mon Jan 21 13:08:06 2019 24.0 F. 12.0 F.
Mon Jan 21 14:08:10 2019 25.0 F. 12.0 F.
Mon Jan 21 15:08:06 2019 25.0 F. 10.9 F.
Mon Jan 21 16:08:05 2019 25.0 F. 10.9 F.
Mon Jan 21 17:08:06 2019 25.0 F. 10.9 F.
Mon Jan 21 18:08:06 2019 24.0 F. 10.9 F.
Mon Jan 21 19:08:06 2019 24.0 F. 10.9 F.
Mon Jan 21 20:08:06 2019 23.0 F. 12.0 F.
Mon Jan 21 21:08:05 2019 23.0 F. 12.0 F.
Mon Jan 21 22:08:05 2019 23.0 F. 12.9 F.
Mon Jan 21 23:08:05 2019 24.0 F. 12.9 F.
Tue Jan 22 00:08:05 2019 24.0 F. 12.9 F.
Tue Jan 22 01:08:05 2019 24.0 F. 14.0 F.
Tue Jan 22 02:08:05 2019 24.0 F. 14.0 F.
Tue Jan 22 03:08:04 2019 25.0 F. 15.1 F.
Tue Jan 22 04:08:04 2019 27.0 F. 15.1 F.
Tue Jan 22 05:08:05 2019 30.0 F. 18.0 F.
Tue Jan 22 06:08:05 2019 32.0 F. 19.9 F.
Tue Jan 22 07:08:05 2019 33.0 F. 21.0 F.
Tue Jan 22 08:08:05 2019 34.0 F. 21.9 F.
Tue Jan 22 09:08:06 2019 36.0 F. 24.1 F.
Tue Jan 22 10:08:07 2019 38.0 F. 25.0 F.
Tue Jan 22 11:08:05 2019 38.0 F. 27.0 F.
Tue Jan 22 12:08:06 2019 39.0 F. 28.9 F.
Tue Jan 22 13:08:06 2019 40.0 F. 30.0 F.
Tue Jan 22 14:08:06 2019 41.0 F. 30.9 F.
Tue Jan 22 15:08:05 2019 41.0 F. 32.0 F.
Tue Jan 22 16:08:05 2019 41.0 F. 35.1 F.
Tue Jan 22 17:08:06 2019 41.0 F. 36.0 F.
Tue Jan 22 18:08:05 2019 42.0 F. 36.0 F.
Tue Jan 22 19:08:05 2019 41.0 F. 36.0 F.
Tue Jan 22 20:08:06 2019 42.0 F. 39.0 F.
Tue Jan 22 21:08:05 2019 43.0 F. 41.0 F.
Tue Jan 22 22:08:07 2019 45.0 F. 43.0 F.
Tue Jan 22 23:08:06 2019 47.0 F. 44.1 F.
Wed Jan 23 00:08:05 2019 49.0 F. 46.0 F.
Wed Jan 23 01:08:05 2019 50.0 F. 46.9 F.
Wed Jan 23 02:08:05 2019 50.0 F. 48.0 F.
Wed Jan 23 03:08:05 2019 51.0 F. 48.0 F.
Wed Jan 23 04:08:04 2019 51.0 F. 48.9 F.
Wed Jan 23 05:08:05 2019 50.0 F. 48.9 F.
Wed Jan 23 06:08:05 2019 50.0 F. 48.0 F.
Wed Jan 23 07:08:05 2019 50.0 F. 48.0 F.
Wed Jan 23 08:08:05 2019 49.0 F. 48.9 F.
Wed Jan 23 09:08:05 2019 38.0 F. 36.0 F.
Wed Jan 23 10:08:05 2019 35.0 F. 33.1 F.
Wed Jan 23 11:08:05 2019 33.0 F. 30.0 F.
Wed Jan 23 12:08:05 2019 32.0 F. 28.9 F.
Wed Jan 23 13:08:05 2019 32.0 F. 28.0 F.
Wed Jan 23 14:08:05 2019 31.0 F. 25.0 F.
Wed Jan 23 15:08:05 2019 31.0 F. 25.0 F.